createdAt,value
2018-11-06T00:01:58.307Z,43.70
2018-11-06T00:04:33.795Z,48.13
2018-11-06T00:07:04.214Z,43.80
2018-11-06T00:09:34.757Z,52.63
2018-11-06T00:12:05.669Z,63.47
2018-11-06T00:14:36.080Z,65.47
2018-11-06T00:17:06.876Z,71.57
2018-11-06T00:19:37.200Z,58.13
2018-11-06T00:22:07.720Z,60.57
2018-11-06T00:24:38.117Z,54.80
2018-11-06T00:27:08.692Z,54.87
2018-11-06T00:29:39.284Z,56.20
2018-11-06T00:32:09.537Z,50.97
2018-11-06T00:34:40.086Z,45.77
2018-11-06T00:37:10.407Z,41.00
2018-11-06T00:39:40.889Z,40.83
2018-11-06T00:42:11.398Z,35.37
2018-11-06T00:44:41.602Z,35.13
2018-11-06T00:47:12.070Z,37.40
2018-11-06T00:49:42.435Z,35.57
2018-11-06T00:52:12.680Z,40.07
2018-11-06T00:54:43.201Z,35.20
2018-11-06T00:57:13.522Z,35.33
2018-11-06T00:59:43.747Z,40.97
2018-11-06T01:02:14.091Z,35.77
2018-11-06T01:04:45.014Z,42.40
2018-11-06T01:07:15.351Z,42.67
2018-11-06T01:09:45.785Z,47.90
2018-11-06T01:12:16.012Z,60.53
2018-11-06T01:14:46.225Z,59.93
2018-11-06T01:17:16.835Z,47.20
2018-11-06T01:19:47.218Z,42.90
2018-11-06T01:22:17.450Z,44.50
2018-11-06T01:24:47.816Z,45.13
2018-11-06T01:27:18.144Z,55.20
2018-11-06T01:29:48.499Z,49.10
2018-11-06T01:32:18.729Z,61.80
2018-11-06T01:34:49.029Z,60.77
2018-11-06T01:37:19.306Z,60.60
2018-11-06T01:39:49.568Z,58.83
2018-11-06T01:42:19.976Z,65.43
2018-11-06T01:44:50.271Z,57.57
2018-11-06T01:47:20.807Z,60.50
2018-11-06T01:49:50.961Z,56.70
2018-11-06T01:52:21.284Z,53.57
2018-11-06T01:54:51.565Z,57.27
2018-11-06T01:57:21.990Z,50.13
2018-11-06T01:59:52.305Z,50.77
2018-11-06T02:02:22.516Z,50.43
2018-11-06T02:04:53.104Z,49.63
2018-11-06T02:07:23.439Z,48.07
2018-11-06T02:09:53.774Z,46.13
2018-11-06T02:12:24.102Z,44.63
2018-11-06T02:14:54.799Z,45.80
2018-11-06T02:17:25.153Z,42.67
2018-11-06T02:19:55.320Z,44.57
2018-11-06T02:22:25.842Z,41.67
2018-11-06T02:24:56.219Z,43.10
2018-11-06T02:27:26.646Z,45.40
2018-11-06T02:29:57.189Z,46.17
2018-11-06T02:32:27.566Z,48.70
2018-11-06T02:34:58.016Z,43.00
2018-11-06T02:37:28.439Z,40.17
2018-11-06T02:39:58.649Z,38.73
2018-11-06T02:42:29.408Z,43.57
2018-11-06T02:44:59.898Z,43.67
2018-11-06T02:47:30.308Z,45.90
2018-11-06T02:50:00.522Z,47.03
2018-11-06T02:52:31.208Z,43.63
2018-11-06T02:55:01.677Z,43.90
2018-11-06T02:57:32.127Z,46.17
2018-11-06T03:00:02.564Z,43.37
2018-11-06T03:02:33.348Z,39.60
2018-11-06T03:05:03.728Z,41.80
2018-11-06T03:07:33.932Z,42.10
2018-11-06T03:10:04.536Z,41.47
2018-11-06T03:12:34.996Z,41.17
2018-11-06T03:15:06.913Z,44.67
2018-11-06T03:17:37.537Z,47.67
2018-11-06T03:20:08.840Z,44.30
2018-11-06T03:22:39.372Z,45.27
2018-11-06T03:25:09.792Z,44.53
2018-11-06T03:27:40.015Z,43.90
2018-11-06T03:30:13.196Z,41.40
2018-11-06T03:32:43.783Z,48.07
2018-11-06T03:35:16.758Z,42.27
2018-11-06T03:37:47.883Z,48.37
2018-11-06T03:40:18.359Z,46.83
2018-11-06T03:42:48.711Z,50.23
2018-11-06T03:45:19.167Z,43.10
2018-11-06T03:47:49.398Z,50.53
2018-11-06T03:50:19.997Z,47.00
2018-11-06T03:52:50.369Z,41.00
2018-11-06T03:55:20.649Z,47.40
2018-11-06T03:57:51.018Z,50.30
2018-11-06T04:00:21.195Z,131.70
2018-11-06T04:02:51.679Z,121.37
2018-11-06T04:05:28.309Z,93.30
2018-11-06T04:07:59.065Z,65.37
2018-11-06T04:10:29.611Z,64.17
2018-11-06T04:12:59.987Z,72.57
2018-11-06T04:15:30.748Z,69.90
2018-11-06T04:18:01.248Z,67.73
2018-11-06T04:20:31.612Z,81.83
2018-11-06T04:23:02.005Z,63.67
2018-11-06T04:25:32.491Z,74.90
2018-11-06T04:28:03.027Z,69.00
2018-11-06T04:30:33.453Z,71.97
2018-11-06T04:33:03.933Z,69.53
2018-11-06T04:35:34.252Z,72.67
2018-11-06T04:38:04.900Z,77.00
2018-11-06T04:40:35.140Z,82.00
2018-11-06T04:43:05.868Z,90.30
2018-11-06T04:45:39.372Z,95.43
2018-11-06T04:48:09.815Z,100.87
2018-11-06T04:50:40.348Z,102.37
2018-11-06T04:53:11.082Z,115.50
2018-11-06T04:55:59.523Z,105.93
2018-11-06T04:58:29.997Z,92.50
2018-11-06T05:01:00.346Z,96.57
2018-11-06T05:03:30.729Z,86.33
2018-11-06T05:06:01.540Z,84.47
2018-11-06T05:08:31.901Z,86.97
2018-11-06T05:11:02.279Z,88.00
2018-11-06T05:13:33.277Z,85.87
2018-11-06T05:16:03.845Z,94.00
2018-11-06T05:18:34.184Z,114.60
2018-11-06T05:21:04.901Z,92.90
2018-11-06T05:23:35.381Z,102.93
2018-11-06T05:26:05.932Z,121.57
2018-11-06T05:28:36.331Z,107.97
2018-11-06T05:31:06.803Z,98.73
2018-11-06T05:33:37.297Z,95.50
2018-11-06T05:36:07.865Z,112.10
2018-11-06T05:38:38.255Z,105.00
2018-11-06T05:41:09.180Z,106.20
2018-11-06T05:43:39.911Z,92.93
2018-11-06T05:49:10.340Z,86.73
2018-11-06T05:51:40.887Z,75.27
2018-11-06T05:54:11.219Z,75.83
2018-11-06T05:56:41.584Z,79.63
2018-11-06T05:59:12.604Z,76.57
2018-11-06T06:01:43.090Z,78.97
2018-11-06T06:04:13.546Z,93.27
2018-11-06T06:06:43.966Z,80.80
2018-11-06T06:09:14.472Z,104.97
2018-11-06T06:11:44.767Z,122.27
2018-11-06T06:14:15.468Z,111.60
2018-11-06T06:16:46.049Z,108.87
2018-11-06T06:19:16.543Z,104.17
2018-11-06T06:21:47.000Z,103.27
2018-11-06T06:24:17.893Z,96.33
2018-11-06T06:26:48.511Z,87.00
2018-11-06T06:29:19.117Z,67.40
2018-11-06T06:31:49.528Z,59.47
2018-11-06T06:34:20.088Z,66.17
2018-11-06T06:36:50.876Z,84.63
2018-11-06T06:39:21.459Z,196.10
2018-11-06T06:41:51.837Z,60.67
2018-11-06T06:44:22.313Z,97.50
2018-11-06T06:46:52.815Z,47.57
2018-11-06T06:49:23.269Z,95.90
2018-11-06T06:51:53.846Z,105.90
2018-11-06T06:54:24.464Z,117.63
2018-11-06T06:56:54.690Z,52.17
2018-11-06T06:59:27.336Z,109.10
2018-11-06T07:02:00.757Z,77.03
2018-11-06T07:04:31.951Z,62.03
2018-11-06T07:07:02.544Z,52.93
2018-11-06T07:09:32.861Z,53.47
2018-11-06T07:12:03.225Z,47.20
2018-11-06T07:14:33.741Z,59.83
2018-11-06T07:17:04.198Z,130.40
2018-11-06T07:19:34.610Z,56.70
2018-11-06T07:22:05.290Z,35.43
2018-11-06T07:24:35.666Z,37.80
2018-11-06T07:27:06.879Z,29.60
2018-11-06T07:29:37.409Z,31.27
2018-11-06T07:32:07.973Z,38.23
2018-11-06T07:34:38.554Z,36.23
2018-11-06T07:37:08.852Z,30.93
2018-11-06T07:39:39.648Z,34.33
2018-11-06T07:42:09.788Z,29.80
2018-11-06T07:44:40.194Z,30.60
2018-11-06T07:47:10.666Z,41.93
2018-11-06T07:49:43.136Z,38.10
2018-11-06T07:52:13.634Z,29.27
2018-11-06T07:54:54.683Z,35.40
2018-11-06T07:57:27.408Z,44.50
2018-11-06T07:59:59.674Z,39.90
2018-11-06T08:02:30.406Z,40.23
2018-11-06T08:05:00.811Z,45.93
2018-11-06T08:07:31.146Z,73.27
2018-11-06T08:10:01.536Z,81.00
2018-11-06T08:12:32.010Z,31.73
2018-11-06T08:15:02.420Z,38.53
2018-11-06T08:17:33.148Z,37.30
2018-11-06T08:20:03.517Z,55.93
2018-11-06T08:22:37.452Z,32.03
2018-11-06T08:25:09.391Z,43.47
2018-11-06T08:27:40.701Z,27.63
2018-11-06T08:30:11.948Z,32.47
2018-11-06T08:32:42.682Z,54.57
2018-11-06T08:35:15.045Z,54.77
2018-11-06T08:37:45.370Z,76.43
2018-11-06T08:40:17.059Z,37.70
2018-11-06T08:42:47.547Z,64.33
2018-11-06T08:45:18.174Z,41.93
2018-11-06T08:47:48.493Z,40.03
2018-11-06T08:50:19.696Z,65.20
2018-11-06T08:52:50.025Z,39.20
2018-11-06T08:55:20.703Z,83.03
2018-11-06T08:57:51.038Z,35.23
2018-11-06T09:00:21.820Z,26.63
2018-11-06T09:02:52.385Z,47.97
2018-11-06T09:05:22.831Z,61.10
2018-11-06T09:07:53.230Z,27.80
2018-11-06T09:10:23.573Z,39.80
2018-11-06T09:12:53.980Z,26.20
2018-11-06T09:15:24.468Z,35.20
2018-11-06T09:17:54.714Z,35.93
2018-11-06T09:20:25.281Z,73.53
2018-11-06T09:22:55.954Z,34.50
2018-11-06T09:25:26.304Z,60.63
2018-11-06T09:27:56.561Z,46.60
2018-11-06T09:30:26.978Z,45.87
2018-11-06T09:32:57.365Z,36.30
2018-11-06T09:35:27.744Z,56.20
2018-11-06T09:37:57.858Z,25.57
2018-11-06T09:42:58.480Z,24.30
2018-11-06T09:45:29.354Z,19.10
2018-11-06T09:47:59.631Z,19.50
2018-11-06T09:50:30.022Z,24.33
2018-11-06T09:53:00.389Z,16.83
2018-11-06T09:55:30.593Z,29.67
2018-11-06T09:58:00.910Z,17.17
2018-11-06T10:00:31.255Z,25.40
2018-11-06T10:03:01.952Z,24.33
2018-11-06T10:05:32.759Z,21.30
2018-11-06T10:08:03.015Z,26.20
2018-11-06T10:10:33.398Z,18.93
2018-11-06T10:13:03.665Z,29.40
2018-11-06T10:15:34.074Z,35.47
2018-11-06T10:18:04.435Z,22.53
2018-11-06T10:20:34.882Z,23.57
2018-11-06T10:23:05.505Z,20.33
2018-11-06T10:25:36.290Z,16.10
2018-11-06T10:28:06.593Z,17.37
2018-11-06T10:30:36.858Z,24.27
2018-11-06T10:33:07.505Z,19.97
2018-11-06T10:35:38.197Z,22.00
2018-11-06T10:38:08.924Z,20.23
2018-11-06T10:40:39.634Z,18.87
2018-11-06T10:43:10.169Z,19.43
2018-11-06T10:45:40.897Z,21.33
2018-11-06T10:48:11.574Z,16.93
2018-11-06T10:50:42.128Z,21.83
2018-11-06T10:53:12.697Z,20.97
2018-11-06T10:55:43.099Z,16.63
2018-11-06T10:58:13.470Z,16.07
2018-11-06T11:00:49.450Z,15.57
2018-11-06T11:03:25.614Z,18.07
2018-11-06T11:05:56.059Z,26.23
2018-11-06T11:08:27.586Z,21.70
2018-11-06T11:10:58.090Z,16.70
2018-11-06T11:13:28.682Z,23.97
2018-11-06T11:15:58.928Z,21.77
2018-11-06T11:18:29.513Z,19.30
2018-11-06T11:20:59.893Z,19.43
2018-11-06T11:23:30.481Z,144.23
2018-11-06T11:26:00.660Z,24.40
2018-11-06T11:28:31.057Z,24.07
2018-11-06T11:31:01.360Z,23.40
2018-11-06T11:33:31.702Z,28.27
2018-11-06T11:36:02.224Z,25.87
2018-11-06T11:38:32.871Z,16.03
2018-11-06T11:41:03.237Z,20.83
2018-11-06T11:43:34.000Z,17.50
2018-11-06T11:46:04.325Z,16.20
2018-11-06T11:48:34.887Z,17.33
2018-11-06T11:51:05.577Z,22.53
2018-11-06T11:53:35.994Z,18.27
2018-11-06T11:56:06.370Z,18.03
2018-11-06T11:58:36.785Z,22.60
2018-11-06T12:01:10.108Z,17.50
2018-11-06T12:03:42.026Z,37.70
2018-11-06T12:06:12.760Z,15.80
2018-11-06T12:08:43.285Z,13.37
2018-11-06T12:11:13.903Z,17.60
2018-11-06T12:13:45.348Z,18.37
2018-11-06T12:16:16.816Z,16.50
2018-11-06T12:18:47.797Z,18.07
2018-11-06T12:21:18.826Z,18.70
2018-11-06T12:23:50.108Z,18.10
2018-11-06T12:26:20.701Z,24.63
2018-11-06T12:28:51.406Z,20.83
2018-11-06T12:31:22.985Z,15.30
2018-11-06T12:33:53.565Z,14.93
2018-11-06T12:36:24.093Z,14.87
2018-11-06T12:38:54.591Z,24.07
2018-11-06T12:41:25.207Z,18.43
2018-11-06T12:43:55.772Z,15.77
2018-11-06T12:46:26.318Z,20.93
2018-11-06T12:48:56.795Z,30.33
2018-11-06T12:51:27.859Z,12.70
2018-11-06T12:53:58.361Z,13.37
2018-11-06T12:56:29.015Z,18.70
2018-11-06T12:59:06.112Z,17.47
2018-11-06T13:01:36.859Z,16.97
2018-11-06T13:04:07.345Z,104.63
2018-11-06T13:06:38.110Z,26.50
2018-11-06T13:09:13.767Z,33.67
2018-11-06T13:11:44.418Z,17.27
2018-11-06T13:14:14.889Z,14.53
2018-11-06T13:16:45.473Z,53.20
2018-11-06T13:19:15.863Z,39.87
2018-11-06T13:21:46.461Z,38.30
2018-11-06T13:24:17.255Z,46.43
2018-11-06T13:26:47.887Z,32.63
2018-11-06T13:29:18.294Z,23.20
2018-11-06T13:31:48.674Z,43.50
2018-11-06T13:34:19.250Z,44.53
2018-11-06T13:36:49.952Z,77.17
2018-11-06T13:39:21.105Z,58.17
2018-11-06T13:41:51.594Z,41.63
2018-11-06T13:44:22.357Z,16.17
2018-11-06T13:46:52.680Z,70.47
2018-11-06T13:49:23.406Z,61.60
2018-11-06T13:51:54.170Z,39.23
2018-11-06T13:54:24.608Z,56.37
2018-11-06T13:56:55.396Z,38.37
2018-11-06T13:59:25.846Z,63.30
2018-11-06T14:01:56.434Z,37.83
2018-11-06T14:04:31.284Z,39.70
2018-11-06T14:07:07.379Z,14.77
2018-11-06T14:09:38.010Z,17.70
2018-11-06T14:12:09.196Z,25.07
2018-11-06T14:14:39.660Z,20.90
2018-11-06T14:17:10.554Z,18.10
2018-11-06T14:19:41.053Z,20.20
2018-11-06T14:22:11.699Z,29.17
2018-11-06T14:24:42.138Z,16.83
2018-11-06T14:27:12.947Z,28.03
2018-11-06T14:29:43.444Z,38.77
2018-11-06T14:32:13.872Z,23.00
2018-11-06T14:34:44.369Z,21.23
2018-11-06T14:37:14.905Z,19.50
2018-11-06T14:39:45.706Z,24.20
2018-11-06T14:42:16.133Z,23.30
2018-11-06T14:44:46.679Z,21.30
2018-11-06T14:47:17.486Z,22.33
2018-11-06T14:49:47.917Z,24.73
2018-11-06T14:52:18.369Z,32.23
2018-11-06T14:54:49.767Z,22.20
2018-11-06T14:57:20.455Z,20.77
2018-11-06T14:59:51.023Z,50.60
2018-11-06T15:02:21.715Z,40.90
2018-11-06T15:04:53.199Z,28.70
2018-11-06T15:07:24.172Z,33.27
2018-11-06T15:09:54.761Z,35.47
2018-11-06T15:12:25.557Z,44.53
2018-11-06T15:14:56.216Z,46.13
2018-11-06T15:17:26.889Z,36.13
2018-11-06T15:19:57.591Z,42.30
2018-11-06T15:22:34.499Z,27.20
2018-11-06T15:25:05.358Z,30.53
2018-11-06T15:27:35.753Z,34.67
2018-11-06T15:30:07.168Z,45.63
2018-11-06T15:32:37.836Z,50.77
2018-11-06T15:35:10.945Z,33.60
2018-11-06T15:37:43.122Z,42.60
2018-11-06T15:40:16.844Z,40.83
2018-11-06T15:42:47.904Z,49.13
2018-11-06T15:45:20.009Z,33.70
2018-11-06T15:47:50.746Z,42.37
2018-11-06T15:50:21.852Z,41.00
2018-11-06T15:52:52.857Z,43.97
2018-11-06T15:55:23.211Z,58.27
2018-11-06T15:57:54.157Z,44.33
2018-11-06T16:00:24.922Z,32.30
2018-11-06T16:02:55.129Z,31.30
2018-11-06T16:05:25.446Z,26.37
2018-11-06T16:07:55.991Z,28.47
2018-11-06T16:10:26.294Z,31.53
2018-11-06T16:12:57.645Z,35.13
2018-11-06T16:15:29.583Z,18.80
2018-11-06T16:17:59.972Z,22.67
2018-11-06T16:20:31.318Z,33.20
2018-11-06T16:23:03.004Z,29.07
2018-11-06T16:25:33.489Z,30.73
2018-11-06T16:28:04.261Z,20.17
2018-11-06T16:30:34.725Z,20.83
2018-11-06T16:33:05.078Z,26.63
2018-11-06T16:35:35.996Z,25.73
2018-11-06T16:38:07.725Z,21.53
2018-11-06T16:40:38.435Z,22.83
2018-11-06T16:43:08.998Z,29.53
2018-11-06T16:45:39.320Z,25.60
2018-11-06T16:48:09.762Z,34.33
2018-11-06T16:50:40.006Z,39.00
2018-11-06T16:53:10.390Z,36.27
2018-11-06T16:55:40.971Z,39.83
2018-11-06T16:58:11.403Z,29.20
2018-11-06T17:00:42.326Z,27.40
2018-11-06T17:03:16.125Z,27.77
2018-11-06T17:05:49.174Z,25.70
2018-11-06T17:08:20.937Z,27.40
2018-11-06T17:10:52.553Z,26.93
2018-11-06T17:13:23.380Z,23.40
2018-11-06T17:15:55.108Z,21.37
2018-11-06T17:18:28.632Z,33.83
2018-11-06T17:20:59.795Z,25.70
2018-11-06T17:23:30.253Z,30.37
2018-11-06T17:26:00.647Z,49.93
2018-11-06T17:28:30.928Z,35.47
2018-11-06T17:31:01.641Z,35.93
2018-11-06T17:33:32.998Z,44.73
2018-11-06T17:36:03.953Z,57.70
2018-11-06T17:38:34.493Z,57.03
2018-11-06T17:41:06.521Z,75.00
2018-11-06T17:43:37.745Z,81.93
2018-11-06T17:46:08.081Z,50.33
2018-11-06T17:48:40.018Z,39.77
2018-11-06T17:51:10.868Z,36.03
2018-11-06T17:53:41.335Z,26.50
2018-11-06T17:56:11.950Z,29.90
2018-11-06T17:58:42.704Z,39.37
2018-11-06T18:01:13.104Z,63.53
2018-11-06T18:03:43.659Z,53.63
2018-11-06T18:06:14.602Z,58.70
2018-11-06T18:08:44.979Z,68.67
2018-11-06T18:11:16.147Z,52.53
2018-11-06T18:13:46.576Z,49.63
2018-11-06T18:16:17.541Z,56.10
2018-11-06T18:18:47.892Z,32.20
2018-11-06T18:21:18.768Z,29.20
2018-11-06T18:23:49.329Z,28.70
2018-11-06T18:26:19.577Z,47.77
2018-11-06T18:28:50.451Z,33.83
2018-11-06T18:31:20.963Z,32.00
2018-11-06T18:33:51.581Z,44.53
2018-11-06T18:36:22.081Z,35.37
2018-11-06T18:38:52.440Z,50.90
2018-11-06T18:41:23.075Z,62.67
2018-11-06T18:43:53.282Z,58.77
2018-11-06T18:46:24.047Z,40.50
2018-11-06T18:48:54.503Z,41.33
2018-11-06T18:51:24.952Z,33.17
2018-11-06T18:53:55.222Z,52.53
2018-11-06T18:56:25.728Z,48.47
2018-11-06T18:58:56.237Z,72.03
2018-11-06T19:01:26.629Z,78.33
2018-11-06T19:03:57.425Z,75.20
2018-11-06T19:06:27.842Z,51.93
2018-11-06T19:09:01.004Z,73.07
2018-11-06T19:11:31.592Z,110.63
2018-11-06T19:14:05.275Z,106.20
2018-11-06T19:16:35.840Z,116.77
2018-11-06T19:19:06.405Z,136.33
2018-11-06T19:21:36.780Z,82.40
2018-11-06T19:24:07.207Z,119.50
2018-11-06T19:26:38.442Z,159.87
2018-11-06T19:29:08.973Z,186.43
2018-11-06T19:31:39.478Z,159.87
2018-11-06T19:34:09.922Z,193.63
2018-11-06T19:36:40.400Z,203.93
2018-11-06T19:39:12.875Z,171.77
2018-11-06T19:41:43.443Z,210.07
2018-11-06T19:44:13.938Z,140.73
2018-11-06T19:46:44.517Z,121.10
2018-11-06T19:49:14.925Z,106.87
2018-11-06T19:51:45.782Z,181.97
2018-11-06T19:54:16.462Z,134.80
2018-11-06T19:56:47.276Z,186.43
2018-11-06T19:59:19.459Z,147.07
2018-11-06T20:01:53.163Z,128.67
2018-11-06T20:04:25.689Z,129.50
2018-11-06T20:06:58.222Z,122.50
2018-11-06T20:09:30.983Z,126.40
2018-11-06T20:12:04.050Z,112.53
2018-11-06T20:14:36.876Z,79.80
2018-11-06T20:17:10.491Z,111.00
2018-11-06T20:19:43.786Z,80.63
2018-11-06T20:22:17.003Z,68.70
2018-11-06T20:24:49.771Z,41.40
2018-11-06T20:27:22.993Z,21.70
2018-11-06T20:29:55.584Z,20.33
2018-11-06T20:32:28.265Z,22.67
2018-11-06T20:35:01.654Z,17.77
2018-11-06T20:37:34.901Z,16.60
2018-11-06T20:40:08.901Z,19.90
2018-11-06T20:42:41.850Z,15.43
2018-11-06T20:45:15.881Z,14.10
2018-11-06T20:47:46.792Z,17.93
2018-11-06T20:50:20.528Z,13.50
2018-11-06T20:52:51.176Z,17.40
2018-11-06T20:55:21.834Z,21.80
2018-11-06T20:57:52.440Z,21.07
2018-11-06T21:00:28.586Z,17.63
2018-11-06T21:03:00.388Z,21.13
2018-11-06T21:05:31.500Z,24.43
2018-11-06T21:08:02.541Z,25.67
2018-11-06T21:10:34.046Z,32.73
2018-11-06T21:13:05.559Z,26.50
2018-11-06T21:15:36.778Z,28.27
2018-11-06T21:18:07.497Z,30.20
2018-11-06T21:20:37.709Z,28.50
2018-11-06T21:23:08.103Z,26.57
2018-11-06T21:25:38.473Z,21.37
2018-11-06T21:28:08.735Z,23.83
2018-11-06T21:30:39.393Z,28.03
2018-11-06T21:33:09.845Z,54.07
2018-11-06T21:35:40.082Z,57.57
2018-11-06T21:38:10.394Z,66.93
2018-11-06T21:40:40.968Z,62.00
2018-11-06T21:43:11.802Z,57.37
2018-11-06T21:45:42.693Z,40.00
2018-11-06T21:48:13.333Z,31.00
2018-11-06T21:50:43.845Z,22.43
2018-11-06T21:53:14.185Z,29.97
2018-11-06T21:55:44.409Z,68.73
2018-11-06T21:58:14.767Z,53.00
2018-11-06T22:00:45.137Z,66.43
2018-11-06T22:03:15.524Z,51.50
2018-11-06T22:05:45.693Z,43.40
2018-11-06T22:08:16.123Z,45.57
2018-11-06T22:10:46.575Z,50.40
2018-11-06T22:13:16.944Z,63.63
2018-11-06T22:15:47.374Z,72.37
2018-11-06T22:18:17.839Z,50.57
2018-11-06T22:20:48.221Z,39.97
2018-11-06T22:23:18.605Z,42.00
2018-11-06T22:25:49.069Z,47.73
2018-11-06T22:28:19.442Z,52.40
2018-11-06T22:30:51.368Z,35.97
2018-11-06T22:33:22.621Z,34.60
2018-11-06T22:35:52.953Z,34.13
2018-11-06T22:38:23.298Z,38.90
2018-11-06T22:40:54.376Z,57.50
2018-11-06T22:43:25.148Z,78.37
2018-11-06T22:45:55.890Z,38.23
2018-11-06T22:48:26.163Z,32.00
2018-11-06T22:50:57.587Z,29.03
2018-11-06T22:53:28.193Z,28.53
2018-11-06T22:55:59.093Z,26.70
2018-11-06T22:58:29.728Z,30.57
2018-11-06T23:01:05.092Z,30.87
2018-11-06T23:03:35.639Z,29.43
2018-11-06T23:06:06.113Z,29.13
2018-11-06T23:08:36.449Z,27.60
2018-11-06T23:11:07.414Z,24.90
2018-11-06T23:13:37.862Z,24.93
2018-11-06T23:16:08.390Z,27.00
2018-11-06T23:18:38.969Z,26.83
2018-11-06T23:21:09.397Z,25.90
2018-11-06T23:23:39.860Z,26.43
2018-11-06T23:26:10.491Z,25.80
2018-11-06T23:28:41.079Z,26.13
2018-11-06T23:31:11.598Z,26.30
2018-11-06T23:33:42.172Z,29.20
2018-11-06T23:36:12.842Z,29.57
2018-11-06T23:38:43.350Z,28.43
2018-11-06T23:41:13.626Z,28.30
2018-11-06T23:43:43.834Z,28.30
2018-11-06T23:46:14.049Z,27.63
2018-11-06T23:48:44.350Z,31.97
2018-11-06T23:51:14.908Z,27.37
2018-11-06T23:53:45.126Z,31.90
2018-11-06T23:56:15.464Z,25.63
2018-11-06T23:58:45.842Z,27.80
